sensor_id;sensor_type;location;lat;lon;timestamp;P1;durP1;ratioP1;P2;durP2;ratioP2
64295;SDS011;51082;38.236;15.432;2022-09-17T00:00:29;2.22;;;0.60;;
64295;SDS011;51082;38.236;15.432;2022-09-17T00:01:32;5.15;;;1.05;;
64295;SDS011;51082;38.236;15.432;2022-09-17T00:02:33;1.98;;;0.90;;
64295;SDS011;51082;38.236;15.432;2022-09-17T00:03:36;3.90;;;0.80;;
64295;SDS011;51082;38.236;15.432;2022-09-17T00:04:37;1.77;;;0.63;;
64295;SDS011;51082;38.236;15.432;2022-09-17T00:05:40;2.03;;;0.68;;
64295;SDS011;51082;38.236;15.432;2022-09-17T00:06:42;2.17;;;0.82;;
64295;SDS011;51082;38.236;15.432;2022-09-17T00:07:45;1.58;;;0.60;;
64295;SDS011;51082;38.236;15.432;2022-09-17T00:08:47;0.93;;;0.70;;
64295;SDS011;51082;38.236;15.432;2022-09-17T00:09:50;2.03;;;0.70;;
64295;SDS011;51082;38.236;15.432;2022-09-17T00:10:53;4.68;;;1.02;;
64295;SDS011;51082;38.236;15.432;2022-09-17T00:11:56;1.00;;;0.73;;
64295;SDS011;51082;38.236;15.432;2022-09-17T00:12:58;5.50;;;0.93;;
64295;SDS011;51082;38.236;15.432;2022-09-17T00:14:01;4.03;;;1.35;;
64295;SDS011;51082;38.236;15.432;2022-09-17T00:15:04;2.85;;;0.93;;
64295;SDS011;51082;38.236;15.432;2022-09-17T00:16:08;1.95;;;0.68;;
64295;SDS011;51082;38.236;15.432;2022-09-17T00:17:11;1.30;;;1.05;;
64295;SDS011;51082;38.236;15.432;2022-09-17T00:18:14;2.15;;;0.70;;
64295;SDS011;51082;38.236;15.432;2022-09-17T00:19:17;3.45;;;0.85;;
64295;SDS011;51082;38.236;15.432;2022-09-17T00:20:22;4.90;;;1.02;;
64295;SDS011;51082;38.236;15.432;2022-09-17T00:21:25;2.17;;;0.93;;
64295;SDS011;51082;38.236;15.432;2022-09-17T00:22:28;5.55;;;1.23;;
64295;SDS011;51082;38.236;15.432;2022-09-17T00:23:29;0.80;;;0.50;;
64295;SDS011;51082;38.236;15.432;2022-09-17T00:24:32;2.53;;;1.10;;
64295;SDS011;51082;38.236;15.432;2022-09-17T00:25:36;1.75;;;1.13;;
64295;SDS011;51082;38.236;15.432;2022-09-17T00:26:40;1.25;;;0.65;;
64295;SDS011;51082;38.236;15.432;2022-09-17T00:27:43;2.17;;;0.55;;
64295;SDS011;51082;38.236;15.432;2022-09-17T00:28:47;1.23;;;0.80;;
64295;SDS011;51082;38.236;15.432;2022-09-17T00:29:51;5.15;;;0.73;;
64295;SDS011;51082;38.236;15.432;2022-09-17T00:30:53;1.45;;;0.40;;
64295;SDS011;51082;38.236;15.432;2022-09-17T00:31:55;4.90;;;0.93;;
64295;SDS011;51082;38.236;15.432;2022-09-17T00:32:58;2.88;;;0.77;;
64295;SDS011;51082;38.236;15.432;2022-09-17T00:34:00;3.63;;;1.25;;
64295;SDS011;51082;38.236;15.432;2022-09-17T00:35:05;2.28;;;1.33;;
64295;SDS011;51082;38.236;15.432;2022-09-17T00:36:07;0.80;;;0.60;;
64295;SDS011;51082;38.236;15.432;2022-09-17T00:37:10;4.95;;;0.75;;
64295;SDS011;51082;38.236;15.432;2022-09-17T00:38:11;1.27;;;0.80;;
64295;SDS011;51082;38.236;15.432;2022-09-17T00:39:14;1.23;;;1.00;;
64295;SDS011;51082;38.236;15.432;2022-09-17T00:40:16;1.90;;;0.75;;
64295;SDS011;51082;38.236;15.432;2022-09-17T00:41:19;0.82;;;0.70;;
64295;SDS011;51082;38.236;15.432;2022-09-17T00:42:23;1.77;;;0.68;;
64295;SDS011;51082;38.236;15.432;2022-09-17T00:43:31;5.47;;;0.80;;
64295;SDS011;51082;38.236;15.432;2022-09-17T00:44:43;0.95;;;0.63;;
64295;SDS011;51082;38.236;15.432;2022-09-17T00:45:49;3.58;;;1.10;;
64295;SDS011;51082;38.236;15.432;2022-09-17T00:46:53;2.85;;;0.80;;
64295;SDS011;51082;38.236;15.432;2022-09-17T00:47:57;1.95;;;0.57;;
64295;SDS011;51082;38.236;15.432;2022-09-17T00:49:00;1.75;;;0.50;;
64295;SDS011;51082;38.236;15.432;2022-09-17T00:50:07;6.15;;;0.85;;
64295;SDS011;51082;38.236;15.432;2022-09-17T00:51:12;5.03;;;1.23;;
64295;SDS011;51082;38.236;15.432;2022-09-17T00:52:19;3.45;;;0.93;;
64295;SDS011;51082;38.236;15.432;2022-09-17T00:53:25;3.63;;;0.93;;
64295;SDS011;51082;38.236;15.432;2022-09-17T00:54:28;3.35;;;1.40;;
64295;SDS011;51082;38.236;15.432;2022-09-17T00:55:31;2.15;;;1.23;;
64295;SDS011;51082;38.236;15.432;2022-09-17T00:56:38;2.85;;;1.00;;
64295;SDS011;51082;38.236;15.432;2022-09-17T00:57:44;0.65;;;0.55;;
64295;SDS011;51082;38.236;15.432;2022-09-17T00:58:48;1.23;;;0.47;;
64295;SDS011;51082;38.236;15.432;2022-09-17T00:59:50;6.72;;;1.08;;
64295;SDS011;51082;38.236;15.432;2022-09-17T01:00:53;5.35;;;1.27;;
64295;SDS011;51082;38.236;15.432;2022-09-17T01:01:55;1.67;;;1.25;;
64295;SDS011;51082;38.236;15.432;2022-09-17T01:02:58;5.30;;;1.00;;
64295;SDS011;51082;38.236;15.432;2022-09-17T01:04:00;2.58;;;1.15;;
64295;SDS011;51082;38.236;15.432;2022-09-17T01:05:04;2.50;;;0.85;;
64295;SDS011;51082;38.236;15.432;2022-09-17T01:06:08;4.35;;;0.98;;
64295;SDS011;51082;38.236;15.432;2022-09-17T01:07:28;2.03;;;0.80;;
64295;SDS011;51082;38.236;15.432;2022-09-17T01:08:39;2.45;;;1.42;;
64295;SDS011;51082;38.236;15.432;2022-09-17T01:09:49;6.55;;;1.10;;
64295;SDS011;51082;38.236;15.432;2022-09-17T01:11:01;3.08;;;0.75;;
64295;SDS011;51082;38.236;15.432;2022-09-17T01:12:17;5.55;;;0.73;;
64295;SDS011;51082;38.236;15.432;2022-09-17T01:13:33;2.17;;;0.90;;
64295;SDS011;51082;38.236;15.432;2022-09-17T01:14:48;1.35;;;0.60;;
64295;SDS011;51082;38.236;15.432;2022-09-17T01:16:03;2.50;;;0.77;;
64295;SDS011;51082;38.236;15.432;2022-09-17T01:17:11;2.67;;;1.55;;
64295;SDS011;51082;38.236;15.432;2022-09-17T01:18:22;7.72;;;1.00;;
64295;SDS011;51082;38.236;15.432;2022-09-17T01:19:55;1.73;;;0.70;;
64295;SDS011;51082;38.236;15.432;2022-09-17T01:21:37;5.07;;;1.20;;
64295;SDS011;51082;38.236;15.432;2022-09-17T01:22:52;2.25;;;1.15;;
64295;SDS011;51082;38.236;15.432;2022-09-17T01:24:18;1.63;;;0.80;;
64295;SDS011;51082;38.236;15.432;2022-09-17T01:25:43;5.90;;;2.03;;
64295;SDS011;51082;38.236;15.432;2022-09-17T01:27:18;1.10;;;0.73;;
64295;SDS011;51082;38.236;15.432;2022-09-17T01:28:34;1.38;;;0.80;;
64295;SDS011;51082;38.236;15.432;2022-09-17T01:29:51;3.53;;;1.08;;
64295;SDS011;51082;38.236;15.432;2022-09-17T01:31:04;3.80;;;1.23;;
64295;SDS011;51082;38.236;15.432;2022-09-17T01:32:18;1.58;;;0.93;;
64295;SDS011;51082;38.236;15.432;2022-09-17T01:33:27;2.33;;;1.45;;
64295;SDS011;51082;38.236;15.432;2022-09-17T01:34:39;1.38;;;0.93;;
64295;SDS011;51082;38.236;15.432;2022-09-17T01:35:46;1.67;;;0.68;;
64295;SDS011;51082;38.236;15.432;2022-09-17T01:37:01;7.55;;;0.70;;
64295;SDS011;51082;38.236;15.432;2022-09-17T01:38:08;2.45;;;0.77;;
64295;SDS011;51082;38.236;15.432;2022-09-17T01:39:18;2.72;;;0.80;;
64295;SDS011;51082;38.236;15.432;2022-09-17T01:40:29;0.90;;;0.73;;
64295;SDS011;51082;38.236;15.432;2022-09-17T01:41:39;6.38;;;1.05;;
64295;SDS011;51082;38.236;15.432;2022-09-17T01:42:47;5.15;;;0.77;;
64295;SDS011;51082;38.236;15.432;2022-09-17T01:43:54;7.93;;;1.07;;
64295;SDS011;51082;38.236;15.432;2022-09-17T01:45:02;2.03;;;0.88;;
64295;SDS011;51082;38.236;15.432;2022-09-17T01:46:12;2.20;;;0.90;;
64295;SDS011;51082;38.236;15.432;2022-09-17T01:48:24;2.05;;;0.98;;
64295;SDS011;51082;38.236;15.432;2022-09-17T01:49:30;1.73;;;1.00;;
64295;SDS011;51082;38.236;15.432;2022-09-17T01:50:36;5.97;;;0.90;;
64295;SDS011;51082;38.236;15.432;2022-09-17T01:51:42;2.75;;;0.75;;
64295;SDS011;51082;38.236;15.432;2022-09-17T01:52:48;2.22;;;1.05;;
64295;SDS011;51082;38.236;15.432;2022-09-17T01:53:55;1.08;;;0.63;;
64295;SDS011;51082;38.236;15.432;2022-09-17T01:55:00;2.33;;;0.90;;
64295;SDS011;51082;38.236;15.432;2022-09-17T01:56:06;4.68;;;1.15;;
64295;SDS011;51082;38.236;15.432;2022-09-17T01:57:11;3.88;;;1.20;;
64295;SDS011;51082;38.236;15.432;2022-09-17T01:58:19;2.00;;;1.00;;
64295;SDS011;51082;38.236;15.432;2022-09-17T01:59:24;0.80;;;0.68;;
64295;SDS011;51082;38.236;15.432;2022-09-17T02:00:31;2.53;;;1.42;;
64295;SDS011;51082;38.236;15.432;2022-09-17T02:01:34;5.03;;;1.10;;
64295;SDS011;51082;38.236;15.432;2022-09-17T02:02:41;4.85;;;1.25;;
64295;SDS011;51082;38.236;15.432;2022-09-17T02:03:47;5.30;;;1.23;;
64295;SDS011;51082;38.236;15.432;2022-09-17T02:04:56;1.52;;;0.77;;
64295;SDS011;51082;38.236;15.432;2022-09-17T02:06:03;3.28;;;0.90;;
64295;SDS011;51082;38.236;15.432;2022-09-17T02:07:13;0.73;;;0.70;;
64295;SDS011;51082;38.236;15.432;2022-09-17T02:08:21;3.20;;;1.23;;
64295;SDS011;51082;38.236;15.432;2022-09-17T02:09:26;4.22;;;1.00;;
64295;SDS011;51082;38.236;15.432;2022-09-17T02:10:34;3.80;;;1.35;;
64295;SDS011;51082;38.236;15.432;2022-09-17T02:11:40;0.88;;;0.77;;
64295;SDS011;51082;38.236;15.432;2022-09-17T02:12:48;4.90;;;0.73;;
64295;SDS011;51082;38.236;15.432;2022-09-17T02:13:56;1.77;;;1.35;;
64295;SDS011;51082;38.236;15.432;2022-09-17T02:15:01;1.52;;;0.82;;
64295;SDS011;51082;38.236;15.432;2022-09-17T02:16:08;1.15;;;0.82;;
64295;SDS011;51082;38.236;15.432;2022-09-17T02:17:15;7.10;;;1.05;;
64295;SDS011;51082;38.236;15.432;2022-09-17T02:18:23;1.52;;;0.88;;
64295;SDS011;51082;38.236;15.432;2022-09-17T02:19:30;2.55;;;0.93;;
64295;SDS011;51082;38.236;15.432;2022-09-17T02:20:38;1.63;;;0.98;;
64295;SDS011;51082;38.236;15.432;2022-09-17T02:21:44;1.80;;;0.70;;
64295;SDS011;51082;38.236;15.432;2022-09-17T02:22:54;1.00;;;0.93;;
64295;SDS011;51082;38.236;15.432;2022-09-17T02:23:59;3.22;;;1.10;;
64295;SDS011;51082;38.236;15.432;2022-09-17T02:25:08;4.70;;;1.10;;
64295;SDS011;51082;38.236;15.432;2022-09-17T02:26:20;2.25;;;0.95;;
64295;SDS011;51082;38.236;15.432;2022-09-17T02:27:28;1.23;;;0.98;;
64295;SDS011;51082;38.236;15.432;2022-09-17T02:28:40;1.25;;;0.90;;
64295;SDS011;51082;38.236;15.432;2022-09-17T02:29:45;2.25;;;1.17;;
64295;SDS011;51082;38.236;15.432;2022-09-17T02:30:46;4.20;;;1.30;;
64295;SDS011;51082;38.236;15.432;2022-09-17T02:31:50;1.42;;;0.80;;
64295;SDS011;51082;38.236;15.432;2022-09-17T02:32:53;1.45;;;0.90;;
64295;SDS011;51082;38.236;15.432;2022-09-17T02:33:58;3.00;;;1.23;;
64295;SDS011;51082;38.236;15.432;2022-09-17T02:35:02;3.33;;;1.20;;
64295;SDS011;51082;38.236;15.432;2022-09-17T02:36:06;6.35;;;1.25;;
64295;SDS011;51082;38.236;15.432;2022-09-17T02:37:08;2.40;;;1.15;;
64295;SDS011;51082;38.236;15.432;2022-09-17T02:38:10;2.08;;;1.00;;
64295;SDS011;51082;38.236;15.432;2022-09-17T02:39:12;2.67;;;1.83;;
64295;SDS011;51082;38.236;15.432;2022-09-17T02:40:16;2.88;;;1.00;;
64295;SDS011;51082;38.236;15.432;2022-09-17T02:41:20;2.55;;;0.95;;
64295;SDS011;51082;38.236;15.432;2022-09-17T02:42:27;1.30;;;1.08;;
64295;SDS011;51082;38.236;15.432;2022-09-17T02:44:41;0.80;;;0.75;;
64295;SDS011;51082;38.236;15.432;2022-09-17T02:45:52;2.15;;;0.90;;
64295;SDS011;51082;38.236;15.432;2022-09-17T02:47:12;1.92;;;0.88;;
64295;SDS011;51082;38.236;15.432;2022-09-17T02:48:41;1.08;;;0.73;;
64295;SDS011;51082;38.236;15.432;2022-09-17T02:50:07;1.45;;;0.98;;
64295;SDS011;51082;38.236;15.432;2022-09-17T02:51:22;1.70;;;1.10;;
64295;SDS011;51082;38.236;15.432;2022-09-17T02:52:37;2.70;;;1.25;;
64295;SDS011;51082;38.236;15.432;2022-09-17T02:53:51;1.55;;;0.80;;
64295;SDS011;51082;38.236;15.432;2022-09-17T02:55:06;1.25;;;0.82;;
64295;SDS011;51082;38.236;15.432;2022-09-17T02:56:14;0.82;;;0.82;;
64295;SDS011;51082;38.236;15.432;2022-09-17T02:57:22;0.95;;;0.88;;
64295;SDS011;51082;38.236;15.432;2022-09-17T02:58:31;2.67;;;1.38;;
64295;SDS011;51082;38.236;15.432;2022-09-17T02:59:42;3.72;;;0.90;;
64295;SDS011;51082;38.236;15.432;2022-09-17T03:00:52;0.75;;;0.63;;
64295;SDS011;51082;38.236;15.432;2022-09-17T03:01:57;1.83;;;0.90;;
64295;SDS011;51082;38.236;15.432;2022-09-17T03:03:04;4.10;;;1.15;;
64295;SDS011;51082;38.236;15.432;2022-09-17T03:04:14;3.03;;;0.77;;
64295;SDS011;51082;38.236;15.432;2022-09-17T03:05:18;3.75;;;1.02;;
64295;SDS011;51082;38.236;15.432;2022-09-17T03:06:23;1.98;;;1.02;;
64295;SDS011;51082;38.236;15.432;2022-09-17T03:07:24;3.42;;;1.38;;
64295;SDS011;51082;38.236;15.432;2022-09-17T03:08:29;0.90;;;0.75;;
64295;SDS011;51082;38.236;15.432;2022-09-17T03:09:34;4.57;;;1.00;;
64295;SDS011;51082;38.236;15.432;2022-09-17T03:10:37;9.63;;;1.33;;
64295;SDS011;51082;38.236;15.432;2022-09-17T03:11:39;0.98;;;0.80;;
64295;SDS011;51082;38.236;15.432;2022-09-17T03:12:43;3.38;;;0.82;;
64295;SDS011;51082;38.236;15.432;2022-09-17T03:13:45;2.80;;;0.90;;
64295;SDS011;51082;38.236;15.432;2022-09-17T03:14:48;1.02;;;1.00;;
64295;SDS011;51082;38.236;15.432;2022-09-17T03:15:50;1.60;;;0.70;;
64295;SDS011;51082;38.236;15.432;2022-09-17T03:16:52;4.07;;;1.05;;
64295;SDS011;51082;38.236;15.432;2022-09-17T03:17:54;1.67;;;0.82;;
64295;SDS011;51082;38.236;15.432;2022-09-17T03:18:57;0.65;;;0.65;;
64295;SDS011;51082;38.236;15.432;2022-09-17T03:20:00;3.50;;;0.90;;
64295;SDS011;51082;38.236;15.432;2022-09-17T03:21:02;1.88;;;0.80;;
64295;SDS011;51082;38.236;15.432;2022-09-17T03:22:04;3.47;;;1.00;;
64295;SDS011;51082;38.236;15.432;2022-09-17T03:23:07;0.85;;;0.68;;
64295;SDS011;51082;38.236;15.432;2022-09-17T03:24:08;4.82;;;1.35;;
64295;SDS011;51082;38.236;15.432;2022-09-17T03:25:12;1.33;;;0.85;;
64295;SDS011;51082;38.236;15.432;2022-09-17T03:26:14;3.35;;;1.33;;
64295;SDS011;51082;38.236;15.432;2022-09-17T03:27:16;1.73;;;1.38;;
64295;SDS011;51082;38.236;15.432;2022-09-17T03:28:18;2.70;;;1.40;;
64295;SDS011;51082;38.236;15.432;2022-09-17T03:29:21;0.98;;;0.98;;
64295;SDS011;51082;38.236;15.432;2022-09-17T03:30:23;1.85;;;0.80;;
64295;SDS011;51082;38.236;15.432;2022-09-17T03:31:25;1.40;;;1.00;;
64295;SDS011;51082;38.236;15.432;2022-09-17T03:32:27;2.97;;;1.00;;
64295;SDS011;51082;38.236;15.432;2022-09-17T03:33:30;0.77;;;0.77;;
64295;SDS011;51082;38.236;15.432;2022-09-17T03:34:32;2.38;;;1.27;;
64295;SDS011;51082;38.236;15.432;2022-09-17T03:35:36;2.92;;;1.45;;
64295;SDS011;51082;38.236;15.432;2022-09-17T03:36:37;7.32;;;1.05;;
64295;SDS011;51082;38.236;15.432;2022-09-17T03:37:40;1.65;;;0.85;;
64295;SDS011;51082;38.236;15.432;2022-09-17T03:38:42;4.97;;;0.85;;
64295;SDS011;51082;38.236;15.432;2022-09-17T03:39:45;2.03;;;0.80;;
64295;SDS011;51082;38.236;15.432;2022-09-17T03:40:55;0.75;;;0.70;;
64295;SDS011;51082;38.236;15.432;2022-09-17T03:41:58;2.75;;;0.90;;
64295;SDS011;51082;38.236;15.432;2022-09-17T03:43:00;0.90;;;0.70;;
64295;SDS011;51082;38.236;15.432;2022-09-17T03:44:03;3.15;;;1.05;;
64295;SDS011;51082;38.236;15.432;2022-09-17T03:45:05;0.70;;;0.60;;
64295;SDS011;51082;38.236;15.432;2022-09-17T03:46:09;3.08;;;1.63;;
64295;SDS011;51082;38.236;15.432;2022-09-17T03:47:10;1.90;;;0.80;;
64295;SDS011;51082;38.236;15.432;2022-09-17T03:48:13;3.25;;;0.70;;
64295;SDS011;51082;38.236;15.432;2022-09-17T03:49:15;0.60;;;0.60;;
64295;SDS011;51082;38.236;15.432;2022-09-17T03:50:17;2.70;;;0.60;;
64295;SDS011;51082;38.236;15.432;2022-09-17T03:51:20;1.17;;;0.77;;
64295;SDS011;51082;38.236;15.432;2022-09-17T03:52:23;1.00;;;0.90;;
64295;SDS011;51082;38.236;15.432;2022-09-17T03:53:25;1.65;;;0.38;;
64295;SDS011;51082;38.236;15.432;2022-09-17T03:54:27;2.00;;;0.88;;
64295;SDS011;51082;38.236;15.432;2022-09-17T03:55:29;1.02;;;0.70;;
64295;SDS011;51082;38.236;15.432;2022-09-17T03:56:32;2.33;;;0.77;;
64295;SDS011;51082;38.236;15.432;2022-09-17T03:57:33;0.45;;;0.45;;
64295;SDS011;51082;38.236;15.432;2022-09-17T03:58:36;3.70;;;0.70;;
64295;SDS011;51082;38.236;15.432;2022-09-17T03:59:38;0.65;;;0.60;;
64295;SDS011;51082;38.236;15.432;2022-09-17T04:00:41;2.17;;;0.70;;
64295;SDS011;51082;38.236;15.432;2022-09-17T04:01:43;3.10;;;0.98;;
64295;SDS011;51082;38.236;15.432;2022-09-17T04:02:46;2.42;;;0.70;;
64295;SDS011;51082;38.236;15.432;2022-09-17T04:03:47;3.22;;;1.02;;
64295;SDS011;51082;38.236;15.432;2022-09-17T04:04:50;7.13;;;1.27;;
64295;SDS011;51082;38.236;15.432;2022-09-17T04:05:52;3.67;;;0.85;;
64295;SDS011;51082;38.236;15.432;2022-09-17T04:06:57;2.20;;;1.10;;
64295;SDS011;51082;38.236;15.432;2022-09-17T04:07:58;1.67;;;1.50;;
64295;SDS011;51082;38.236;15.432;2022-09-17T04:09:01;1.98;;;1.60;;
64295;SDS011;51082;38.236;15.432;2022-09-17T04:10:04;9.15;;;3.03;;
64295;SDS011;51082;38.236;15.432;2022-09-17T04:11:08;3.17;;;1.50;;
64295;SDS011;51082;38.236;15.432;2022-09-17T04:12:10;6.15;;;2.30;;
64295;SDS011;51082;38.236;15.432;2022-09-17T04:13:13;2.92;;;2.00;;
64295;SDS011;51082;38.236;15.432;2022-09-17T04:14:15;6.95;;;1.90;;
64295;SDS011;51082;38.236;15.432;2022-09-17T04:15:18;4.47;;;1.73;;
64295;SDS011;51082;38.236;15.432;2022-09-17T04:16:19;1.77;;;1.48;;
64295;SDS011;51082;38.236;15.432;2022-09-17T04:17:22;1.70;;;1.23;;
64295;SDS011;51082;38.236;15.432;2022-09-17T04:18:24;2.47;;;1.23;;
64295;SDS011;51082;38.236;15.432;2022-09-17T04:19:27;3.80;;;1.50;;
64295;SDS011;51082;38.236;15.432;2022-09-17T04:20:28;1.60;;;1.10;;
64295;SDS011;51082;38.236;15.432;2022-09-17T04:21:31;1.38;;;1.10;;
64295;SDS011;51082;38.236;15.432;2022-09-17T04:22:34;2.65;;;1.27;;
64295;SDS011;51082;38.236;15.432;2022-09-17T04:23:37;9.85;;;1.92;;
64295;SDS011;51082;38.236;15.432;2022-09-17T04:24:38;5.57;;;1.70;;
64295;SDS011;51082;38.236;15.432;2022-09-17T04:25:41;3.00;;;1.63;;
64295;SDS011;51082;38.236;15.432;2022-09-17T04:26:43;3.30;;;1.33;;
64295;SDS011;51082;38.236;15.432;2022-09-17T04:27:45;0.95;;;0.70;;
64295;SDS011;51082;38.236;15.432;2022-09-17T04:28:47;3.33;;;1.45;;
64295;SDS011;51082;38.236;15.432;2022-09-17T04:29:50;1.95;;;1.27;;
64295;SDS011;51082;38.236;15.432;2022-09-17T04:30:52;4.07;;;1.55;;
64295;SDS011;51082;38.236;15.432;2022-09-17T04:31:54;1.95;;;1.40;;
64295;SDS011;51082;38.236;15.432;2022-09-17T04:32:56;2.53;;;1.35;;
64295;SDS011;51082;38.236;15.432;2022-09-17T04:33:59;2.78;;;1.00;;
64295;SDS011;51082;38.236;15.432;2022-09-17T04:35:00;5.40;;;1.17;;
64295;SDS011;51082;38.236;15.432;2022-09-17T04:36:03;1.98;;;1.33;;
64295;SDS011;51082;38.236;15.432;2022-09-17T04:37:06;2.38;;;1.23;;
64295;SDS011;51082;38.236;15.432;2022-09-17T04:38:09;3.05;;;0.90;;
64295;SDS011;51082;38.236;15.432;2022-09-17T04:39:13;2.55;;;1.05;;
64295;SDS011;51082;38.236;15.432;2022-09-17T04:40:15;1.17;;;0.93;;
64295;SDS011;51082;38.236;15.432;2022-09-17T04:41:17;2.75;;;1.00;;
64295;SDS011;51082;38.236;15.432;2022-09-17T04:42:19;3.20;;;1.30;;
64295;SDS011;51082;38.236;15.432;2022-09-17T04:43:22;1.42;;;0.93;;
64295;SDS011;51082;38.236;15.432;2022-09-17T04:44:24;2.58;;;0.95;;
64295;SDS011;51082;38.236;15.432;2022-09-17T04:45:26;1.08;;;0.90;;
64295;SDS011;51082;38.236;15.432;2022-09-17T04:46:29;1.63;;;1.10;;
64295;SDS011;51082;38.236;15.432;2022-09-17T04:47:32;1.67;;;1.17;;
64295;SDS011;51082;38.236;15.432;2022-09-17T04:48:33;0.60;;;0.60;;
64295;SDS011;51082;38.236;15.432;2022-09-17T04:49:36;2.22;;;1.17;;
64295;SDS011;51082;38.236;15.432;2022-09-17T04:50:38;3.38;;;0.93;;
64295;SDS011;51082;38.236;15.432;2022-09-17T04:51:40;1.98;;;1.20;;
64295;SDS011;51082;38.236;15.432;2022-09-17T04:52:42;2.22;;;0.82;;
64295;SDS011;51082;38.236;15.432;2022-09-17T04:53:46;3.53;;;0.93;;
64295;SDS011;51082;38.236;15.432;2022-09-17T04:54:48;6.35;;;1.00;;
64295;SDS011;51082;38.236;15.432;2022-09-17T04:55:51;2.58;;;1.45;;
64295;SDS011;51082;38.236;15.432;2022-09-17T04:56:53;5.18;;;1.20;;
64295;SDS011;51082;38.236;15.432;2022-09-17T04:57:55;3.83;;;1.15;;
64295;SDS011;51082;38.236;15.432;2022-09-17T04:58:57;3.67;;;1.10;;
64295;SDS011;51082;38.236;15.432;2022-09-17T05:00:00;2.38;;;0.93;;
64295;SDS011;51082;38.236;15.432;2022-09-17T05:01:02;2.65;;;1.15;;
64295;SDS011;51082;38.236;15.432;2022-09-17T05:02:05;1.75;;;1.00;;
64295;SDS011;51082;38.236;15.432;2022-09-17T05:03:07;4.88;;;0.77;;
64295;SDS011;51082;38.236;15.432;2022-09-17T05:04:10;0.68;;;0.68;;
64295;SDS011;51082;38.236;15.432;2022-09-17T05:05:11;2.85;;;0.95;;
64295;SDS011;51082;38.236;15.432;2022-09-17T05:06:14;2.28;;;1.40;;
64295;SDS011;51082;38.236;15.432;2022-09-17T05:07:16;2.08;;;1.20;;
64295;SDS011;51082;38.236;15.432;2022-09-17T05:08:19;3.72;;;1.48;;
64295;SDS011;51082;38.236;15.432;2022-09-17T05:09:24;2.60;;;1.20;;
64295;SDS011;51082;38.236;15.432;2022-09-17T05:10:27;5.25;;;1.67;;
64295;SDS011;51082;38.236;15.432;2022-09-17T05:11:29;10.48;;;2.70;;
64295;SDS011;51082;38.236;15.432;2022-09-17T05:12:32;2.65;;;1.77;;
64295;SDS011;51082;38.236;15.432;2022-09-17T05:13:34;2.75;;;1.45;;
64295;SDS011;51082;38.236;15.432;2022-09-17T05:14:36;3.53;;;2.00;;
64295;SDS011;51082;38.236;15.432;2022-09-17T05:15:38;10.48;;;4.07;;
64295;SDS011;51082;38.236;15.432;2022-09-17T05:16:41;24.58;;;8.73;;
64295;SDS011;51082;38.236;15.432;2022-09-17T05:17:42;23.77;;;8.90;;
64295;SDS011;51082;38.236;15.432;2022-09-17T05:18:45;18.73;;;7.88;;
64295;SDS011;51082;38.236;15.432;2022-09-17T05:19:49;25.00;;;7.82;;
64295;SDS011;51082;38.236;15.432;2022-09-17T05:20:53;19.40;;;7.75;;
64295;SDS011;51082;38.236;15.432;2022-09-17T05:21:55;16.73;;;7.38;;
64295;SDS011;51082;38.236;15.432;2022-09-17T05:22:57;16.95;;;6.72;;
64295;SDS011;51082;38.236;15.432;2022-09-17T05:23:59;19.27;;;7.03;;
64295;SDS011;51082;38.236;15.432;2022-09-17T05:25:04;16.88;;;6.82;;
64295;SDS011;51082;38.236;15.432;2022-09-17T05:26:06;17.80;;;6.82;;
64295;SDS011;51082;38.236;15.432;2022-09-17T05:27:09;16.50;;;6.80;;
64295;SDS011;51082;38.236;15.432;2022-09-17T05:28:11;12.98;;;5.72;;
64295;SDS011;51082;38.236;15.432;2022-09-17T05:29:13;13.40;;;6.10;;
64295;SDS011;51082;38.236;15.432;2022-09-17T05:30:15;10.32;;;5.63;;
64295;SDS011;51082;38.236;15.432;2022-09-17T05:31:18;26.45;;;7.22;;
64295;SDS011;51082;38.236;15.432;2022-09-17T05:32:20;25.35;;;9.93;;
64295;SDS011;51082;38.236;15.432;2022-09-17T05:33:22;16.83;;;7.28;;
64295;SDS011;51082;38.236;15.432;2022-09-17T05:34:24;17.92;;;5.35;;
64295;SDS011;51082;38.236;15.432;2022-09-17T05:35:27;13.10;;;4.70;;
64295;SDS011;51082;38.236;15.432;2022-09-17T05:36:29;11.65;;;5.03;;
64295;SDS011;51082;38.236;15.432;2022-09-17T05:37:32;16.90;;;4.95;;
64295;SDS011;51082;38.236;15.432;2022-09-17T05:38:34;16.10;;;5.85;;
64295;SDS011;51082;38.236;15.432;2022-09-17T05:39:36;23.48;;;6.22;;
64295;SDS011;51082;38.236;15.432;2022-09-17T05:40:40;31.88;;;10.23;;
64295;SDS011;51082;38.236;15.432;2022-09-17T05:41:42;42.05;;;13.98;;
64295;SDS011;51082;38.236;15.432;2022-09-17T05:42:44;42.35;;;14.23;;
64295;SDS011;51082;38.236;15.432;2022-09-17T05:43:47;28.17;;;12.15;;
64295;SDS011;51082;38.236;15.432;2022-09-17T05:44:50;24.83;;;9.20;;
64295;SDS011;51082;38.236;15.432;2022-09-17T05:45:52;26.15;;;9.23;;
64295;SDS011;51082;38.236;15.432;2022-09-17T05:46:55;32.03;;;9.35;;
64295;SDS011;51082;38.236;15.432;2022-09-17T05:47:58;21.73;;;8.65;;
64295;SDS011;51082;38.236;15.432;2022-09-17T05:49:01;20.35;;;8.60;;
64295;SDS011;51082;38.236;15.432;2022-09-17T05:50:04;33.13;;;13.20;;
64295;SDS011;51082;38.236;15.432;2022-09-17T05:51:07;31.95;;;12.40;;
64295;SDS011;51082;38.236;15.432;2022-09-17T05:52:09;28.70;;;11.50;;
64295;SDS011;51082;38.236;15.432;2022-09-17T05:53:11;34.20;;;13.40;;
64295;SDS011;51082;38.236;15.432;2022-09-17T05:54:14;38.50;;;15.60;;
64295;SDS011;51082;38.236;15.432;2022-09-17T05:55:16;38.90;;;13.57;;
64295;SDS011;51082;38.236;15.432;2022-09-17T05:56:21;34.75;;;13.50;;
64295;SDS011;51082;38.236;15.432;2022-09-17T05:57:23;23.70;;;10.05;;
64295;SDS011;51082;38.236;15.432;2022-09-17T05:58:29;14.30;;;6.65;;
64295;SDS011;51082;38.236;15.432;2022-09-17T05:59:34;8.68;;;3.67;;
64295;SDS011;51082;38.236;15.432;2022-09-17T06:00:35;3.28;;;1.63;;
64295;SDS011;51082;38.236;15.432;2022-09-17T06:01:39;5.15;;;2.08;;
64295;SDS011;51082;38.236;15.432;2022-09-17T06:02:43;3.75;;;1.85;;
64295;SDS011;51082;38.236;15.432;2022-09-17T06:03:46;3.45;;;1.60;;
64295;SDS011;51082;38.236;15.432;2022-09-17T06:04:47;9.05;;;2.00;;
64295;SDS011;51082;38.236;15.432;2022-09-17T06:05:51;2.53;;;1.02;;
64295;SDS011;51082;38.236;15.432;2022-09-17T06:06:54;2.88;;;1.45;;
64295;SDS011;51082;38.236;15.432;2022-09-17T06:07:56;2.70;;;1.33;;
64295;SDS011;51082;38.236;15.432;2022-09-17T06:08:58;4.57;;;1.20;;
64295;SDS011;51082;38.236;15.432;2022-09-17T06:10:01;5.55;;;1.80;;
64295;SDS011;51082;38.236;15.432;2022-09-17T06:11:03;1.30;;;1.00;;
64295;SDS011;51082;38.236;15.432;2022-09-17T06:12:08;3.78;;;1.42;;
64295;SDS011;51082;38.236;15.432;2022-09-17T06:13:09;5.25;;;1.30;;
64295;SDS011;51082;38.236;15.432;2022-09-17T06:14:12;6.40;;;1.20;;
64295;SDS011;51082;38.236;15.432;2022-09-17T06:15:14;2.00;;;1.13;;
64295;SDS011;51082;38.236;15.432;2022-09-17T06:16:17;4.65;;;1.10;;
64295;SDS011;51082;38.236;15.432;2022-09-17T06:17:18;4.45;;;1.65;;
64295;SDS011;51082;38.236;15.432;2022-09-17T06:18:21;2.35;;;1.20;;
64295;SDS011;51082;38.236;15.432;2022-09-17T06:19:23;3.17;;;1.83;;
64295;SDS011;51082;38.236;15.432;2022-09-17T06:20:25;1.15;;;0.80;;
64295;SDS011;51082;38.236;15.432;2022-09-17T06:21:27;2.50;;;0.80;;
64295;SDS011;51082;38.236;15.432;2022-09-17T06:22:30;4.90;;;1.08;;
64295;SDS011;51082;38.236;15.432;2022-09-17T06:23:32;4.55;;;1.15;;
64295;SDS011;51082;38.236;15.432;2022-09-17T06:24:36;6.30;;;1.17;;
64295;SDS011;51082;38.236;15.432;2022-09-17T06:25:38;2.55;;;1.13;;
64295;SDS011;51082;38.236;15.432;2022-09-17T06:26:41;0.82;;;0.75;;